sensor_id;sensor_type;location;lat;lon;timestamp;temperature;humidity
66184;DHT22;52989;48.796;9.806;2022-12-13T00:01:10;-5.40;99.90
66184;DHT22;52989;48.796;9.806;2022-12-13T00:03:36;-5.40;99.90
66184;DHT22;52989;48.796;9.806;2022-12-13T00:06:07;-5.20;99.90
66184;DHT22;52989;48.796;9.806;2022-12-13T00:08:33;-4.90;99.90
66184;DHT22;52989;48.796;9.806;2022-12-13T00:11:00;-5.10;99.90
66184;DHT22;52989;48.796;9.806;2022-12-13T00:13:27;-4.90;99.90
66184;DHT22;52989;48.796;9.806;2022-12-13T00:16:00;-4.90;99.90
66184;DHT22;52989;48.796;9.806;2022-12-13T00:18:27;-5.20;99.90
66184;DHT22;52989;48.796;9.806;2022-12-13T00:20:53;-5.40;99.90
66184;DHT22;52989;48.796;9.806;2022-12-13T00:23:19;-5.30;99.90
66184;DHT22;52989;48.796;9.806;2022-12-13T00:25:44;-5.40;99.90
66184;DHT22;52989;48.796;9.806;2022-12-13T00:28:10;-5.50;99.90
66184;DHT22;52989;48.796;9.806;2022-12-13T00:30:36;-5.40;99.90
66184;DHT22;52989;48.796;9.806;2022-12-13T00:33:02;-5.20;99.90
66184;DHT22;52989;48.796;9.806;2022-12-13T00:35:27;-5.10;99.90
66184;DHT22;52989;48.796;9.806;2022-12-13T00:37:53;-5.10;99.90
66184;DHT22;52989;48.796;9.806;2022-12-13T00:40:18;-5.00;99.90
66184;DHT22;52989;48.796;9.806;2022-12-13T00:42:45;-5.00;99.90
66184;DHT22;52989;48.796;9.806;2022-12-13T00:45:11;-5.00;99.90
66184;DHT22;52989;48.796;9.806;2022-12-13T00:47:37;-5.00;99.90
66184;DHT22;52989;48.796;9.806;2022-12-13T00:50:03;-5.10;99.90
66184;DHT22;52989;48.796;9.806;2022-12-13T00:52:29;-5.00;99.90
66184;DHT22;52989;48.796;9.806;2022-12-13T00:54:55;-5.20;99.90
66184;DHT22;52989;48.796;9.806;2022-12-13T00:57:20;-5.20;99.90
66184;DHT22;52989;48.796;9.806;2022-12-13T00:59:46;-5.10;99.90
66184;DHT22;52989;48.796;9.806;2022-12-13T01:02:11;-5.10;99.90
66184;DHT22;52989;48.796;9.806;2022-12-13T01:04:37;-5.20;99.90
66184;DHT22;52989;48.796;9.806;2022-12-13T01:07:03;-5.20;99.90
66184;DHT22;52989;48.796;9.806;2022-12-13T01:09:29;-4.60;99.90
66184;DHT22;52989;48.796;9.806;2022-12-13T01:11:58;-4.80;99.90
66184;DHT22;52989;48.796;9.806;2022-12-13T01:14:25;-5.20;99.90
66184;DHT22;52989;48.796;9.806;2022-12-13T01:16:51;-5.50;99.90
66184;DHT22;52989;48.796;9.806;2022-12-13T01:19:21;-5.30;99.90
66184;DHT22;52989;48.796;9.806;2022-12-13T01:21:46;-4.90;99.90
66184;DHT22;52989;48.796;9.806;2022-12-13T01:24:12;-5.20;99.90
66184;DHT22;52989;48.796;9.806;2022-12-13T01:26:37;-4.90;99.90
66184;DHT22;52989;48.796;9.806;2022-12-13T01:29:03;-4.80;99.90
66184;DHT22;52989;48.796;9.806;2022-12-13T01:31:30;-5.00;99.90
66184;DHT22;52989;48.796;9.806;2022-12-13T01:33:56;-4.70;99.90
66184;DHT22;52989;48.796;9.806;2022-12-13T01:36:22;-4.90;99.90
66184;DHT22;52989;48.796;9.806;2022-12-13T01:38:48;-5.10;99.90
66184;DHT22;52989;48.796;9.806;2022-12-13T01:41:16;-4.90;99.90
66184;DHT22;52989;48.796;9.806;2022-12-13T01:46:09;-5.10;99.90
66184;DHT22;52989;48.796;9.806;2022-12-13T01:48:39;-5.10;99.90
66184;DHT22;52989;48.796;9.806;2022-12-13T01:51:07;-5.10;99.90
66184;DHT22;52989;48.796;9.806;2022-12-13T01:53:36;-4.80;99.90
66184;DHT22;52989;48.796;9.806;2022-12-13T01:56:20;-5.20;99.90
66184;DHT22;52989;48.796;9.806;2022-12-13T01:58:47;-5.00;99.90
66184;DHT22;52989;48.796;9.806;2022-12-13T02:01:15;-4.90;99.90
66184;DHT22;52989;48.796;9.806;2022-12-13T02:03:41;-4.60;99.90
66184;DHT22;52989;48.796;9.806;2022-12-13T02:06:11;-4.80;99.90
66184;DHT22;52989;48.796;9.806;2022-12-13T02:08:39;-4.90;99.90
66184;DHT22;52989;48.796;9.806;2022-12-13T02:11:05;-5.00;99.90
66184;DHT22;52989;48.796;9.806;2022-12-13T02:13:31;-5.00;99.90
66184;DHT22;52989;48.796;9.806;2022-12-13T02:18:39;-4.90;99.90
66184;DHT22;52989;48.796;9.806;2022-12-13T02:34:45;-5.10;99.90
66184;DHT22;52989;48.796;9.806;2022-12-13T02:37:26;-5.20;99.90
66184;DHT22;52989;48.796;9.806;2022-12-13T02:40:08;-5.10;99.90
66184;DHT22;52989;48.796;9.806;2022-12-13T02:43:21;-5.00;99.90
66184;DHT22;52989;48.796;9.806;2022-12-13T02:45:52;-5.20;99.90
66184;DHT22;52989;48.796;9.806;2022-12-13T02:48:24;-5.20;99.90
66184;DHT22;52989;48.796;9.806;2022-12-13T02:50:52;-5.20;99.90
66184;DHT22;52989;48.796;9.806;2022-12-13T02:53:19;-5.30;99.90
66184;DHT22;52989;48.796;9.806;2022-12-13T02:55:48;-5.20;99.90
66184;DHT22;52989;48.796;9.806;2022-12-13T02:58:18;-4.90;99.90
66184;DHT22;52989;48.796;9.806;2022-12-13T03:00:50;-5.20;99.90
66184;DHT22;52989;48.796;9.806;2022-12-13T03:03:52;-5.20;99.90
66184;DHT22;52989;48.796;9.806;2022-12-13T03:17:38;-5.30;99.90
66184;DHT22;52989;48.796;9.806;2022-12-13T03:20:06;-5.30;99.90
66184;DHT22;52989;48.796;9.806;2022-12-13T03:22:34;-5.20;99.90
66184;DHT22;52989;48.796;9.806;2022-12-13T03:25:00;-5.10;99.90
66184;DHT22;52989;48.796;9.806;2022-12-13T03:27:26;-5.30;99.90
66184;DHT22;52989;48.796;9.806;2022-12-13T03:29:51;-5.10;99.90
66184;DHT22;52989;48.796;9.806;2022-12-13T03:32:17;-5.20;99.90
66184;DHT22;52989;48.796;9.806;2022-12-13T03:34:42;-5.20;99.90
66184;DHT22;52989;48.796;9.806;2022-12-13T03:37:08;-5.20;99.90
66184;DHT22;52989;48.796;9.806;2022-12-13T03:39:34;-5.10;99.90
66184;DHT22;52989;48.796;9.806;2022-12-13T03:42:00;-5.00;99.90
66184;DHT22;52989;48.796;9.806;2022-12-13T03:44:25;-5.20;99.90
66184;DHT22;52989;48.796;9.806;2022-12-13T03:46:51;-5.20;99.90
66184;DHT22;52989;48.796;9.806;2022-12-13T03:49:17;-5.20;99.90
66184;DHT22;52989;48.796;9.806;2022-12-13T03:51:43;-5.20;99.90
66184;DHT22;52989;48.796;9.806;2022-12-13T03:54:08;-5.10;99.90
66184;DHT22;52989;48.796;9.806;2022-12-13T03:56:34;-5.30;99.90
66184;DHT22;52989;48.796;9.806;2022-12-13T03:59:00;-5.20;99.90
66184;DHT22;52989;48.796;9.806;2022-12-13T04:01:26;-5.30;99.90
66184;DHT22;52989;48.796;9.806;2022-12-13T04:03:52;-5.40;99.90
66184;DHT22;52989;48.796;9.806;2022-12-13T04:06:17;-5.40;99.90
66184;DHT22;52989;48.796;9.806;2022-12-13T04:08:43;-5.40;99.90
66184;DHT22;52989;48.796;9.806;2022-12-13T04:11:08;-5.50;99.90
66184;DHT22;52989;48.796;9.806;2022-12-13T04:13:53;-5.50;99.90
66184;DHT22;52989;48.796;9.806;2022-12-13T04:16:19;-5.60;99.90
66184;DHT22;52989;48.796;9.806;2022-12-13T04:18:44;-5.70;99.90
66184;DHT22;52989;48.796;9.806;2022-12-13T04:21:10;-5.60;99.90
66184;DHT22;52989;48.796;9.806;2022-12-13T04:23:35;-5.70;99.90
66184;DHT22;52989;48.796;9.806;2022-12-13T04:26:01;-5.70;99.90
66184;DHT22;52989;48.796;9.806;2022-12-13T04:28:27;-5.70;99.90
66184;DHT22;52989;48.796;9.806;2022-12-13T04:30:52;-5.70;99.90
66184;DHT22;52989;48.796;9.806;2022-12-13T04:33:18;-5.70;99.90
66184;DHT22;52989;48.796;9.806;2022-12-13T04:35:46;-5.80;99.90
66184;DHT22;52989;48.796;9.806;2022-12-13T04:38:11;-5.80;99.90
66184;DHT22;52989;48.796;9.806;2022-12-13T04:40:37;-5.80;99.90
66184;DHT22;52989;48.796;9.806;2022-12-13T04:43:03;-5.80;99.90
66184;DHT22;52989;48.796;9.806;2022-12-13T04:45:28;-5.80;99.90
66184;DHT22;52989;48.796;9.806;2022-12-13T04:47:54;-5.80;99.90
66184;DHT22;52989;48.796;9.806;2022-12-13T04:50:19;-5.80;99.90
66184;DHT22;52989;48.796;9.806;2022-12-13T04:52:45;-5.80;99.90
66184;DHT22;52989;48.796;9.806;2022-12-13T04:55:11;-5.70;99.90
66184;DHT22;52989;48.796;9.806;2022-12-13T04:57:37;-5.70;99.90
66184;DHT22;52989;48.796;9.806;2022-12-13T05:00:04;-5.50;99.90
66184;DHT22;52989;48.796;9.806;2022-12-13T05:02:30;-5.50;99.90
66184;DHT22;52989;48.796;9.806;2022-12-13T05:04:56;-5.60;99.90
66184;DHT22;52989;48.796;9.806;2022-12-13T05:07:21;-5.60;99.90
66184;DHT22;52989;48.796;9.806;2022-12-13T05:09:47;-5.50;99.90
66184;DHT22;52989;48.796;9.806;2022-12-13T05:12:13;-5.40;99.90
66184;DHT22;52989;48.796;9.806;2022-12-13T05:14:38;-5.50;99.90
66184;DHT22;52989;48.796;9.806;2022-12-13T05:17:04;-5.60;99.90
66184;DHT22;52989;48.796;9.806;2022-12-13T05:19:29;-5.50;99.90
66184;DHT22;52989;48.796;9.806;2022-12-13T05:21:55;-5.60;99.90
66184;DHT22;52989;48.796;9.806;2022-12-13T05:24:21;-5.10;99.90
66184;DHT22;52989;48.796;9.806;2022-12-13T05:26:46;-5.40;99.90
66184;DHT22;52989;48.796;9.806;2022-12-13T05:29:12;-5.30;99.90
66184;DHT22;52989;48.796;9.806;2022-12-13T05:31:37;-5.30;99.90
66184;DHT22;52989;48.796;9.806;2022-12-13T05:34:03;-5.30;99.90
66184;DHT22;52989;48.796;9.806;2022-12-13T05:36:29;-5.50;99.90
66184;DHT22;52989;48.796;9.806;2022-12-13T05:38:55;-5.40;99.90
66184;DHT22;52989;48.796;9.806;2022-12-13T05:41:22;-5.40;99.90
66184;DHT22;52989;48.796;9.806;2022-12-13T05:43:51;-5.60;99.90
66184;DHT22;52989;48.796;9.806;2022-12-13T05:46:16;-5.70;99.90
66184;DHT22;52989;48.796;9.806;2022-12-13T05:48:42;-5.70;99.90
66184;DHT22;52989;48.796;9.806;2022-12-13T05:51:08;-5.70;99.90
66184;DHT22;52989;48.796;9.806;2022-12-13T05:53:34;-5.80;99.90
66184;DHT22;52989;48.796;9.806;2022-12-13T05:56:03;-5.80;99.90
66184;DHT22;52989;48.796;9.806;2022-12-13T05:58:28;-5.90;99.90
66184;DHT22;52989;48.796;9.806;2022-12-13T06:00:54;-5.90;99.90
66184;DHT22;52989;48.796;9.806;2022-12-13T06:03:19;-5.90;99.90
66184;DHT22;52989;48.796;9.806;2022-12-13T06:05:45;-5.90;99.90
66184;DHT22;52989;48.796;9.806;2022-12-13T06:08:11;-5.90;99.90
66184;DHT22;52989;48.796;9.806;2022-12-13T06:10:36;-5.90;99.90
66184;DHT22;52989;48.796;9.806;2022-12-13T06:13:03;-5.90;99.90
66184;DHT22;52989;48.796;9.806;2022-12-13T06:15:30;-5.90;99.90
66184;DHT22;52989;48.796;9.806;2022-12-13T06:17:58;-5.80;99.90
66184;DHT22;52989;48.796;9.806;2022-12-13T06:20:24;-5.40;99.90
66184;DHT22;52989;48.796;9.806;2022-12-13T06:22:50;-5.50;99.90
66184;DHT22;52989;48.796;9.806;2022-12-13T06:25:16;-5.70;99.90
66184;DHT22;52989;48.796;9.806;2022-12-13T06:27:41;-5.70;99.90
66184;DHT22;52989;48.796;9.806;2022-12-13T06:30:07;-5.70;99.90
66184;DHT22;52989;48.796;9.806;2022-12-13T06:32:33;-5.50;99.90
66184;DHT22;52989;48.796;9.806;2022-12-13T06:34:59;-5.60;99.90
66184;DHT22;52989;48.796;9.806;2022-12-13T06:37:24;-5.80;99.90
66184;DHT22;52989;48.796;9.806;2022-12-13T06:39:50;-5.90;99.90
66184;DHT22;52989;48.796;9.806;2022-12-13T06:42:17;-5.90;99.90
66184;DHT22;52989;48.796;9.806;2022-12-13T06:44:42;-5.70;99.90
66184;DHT22;52989;48.796;9.806;2022-12-13T06:47:08;-6.00;99.90
66184;DHT22;52989;48.796;9.806;2022-12-13T06:49:34;-6.00;99.90
66184;DHT22;52989;48.796;9.806;2022-12-13T06:52:00;-6.00;99.90
66184;DHT22;52989;48.796;9.806;2022-12-13T06:54:25;-5.90;99.90
66184;DHT22;52989;48.796;9.806;2022-12-13T06:56:51;-6.00;99.90
66184;DHT22;52989;48.796;9.806;2022-12-13T06:59:16;-5.80;99.90
66184;DHT22;52989;48.796;9.806;2022-12-13T07:01:42;-5.90;99.90
66184;DHT22;52989;48.796;9.806;2022-12-13T07:04:10;-5.90;99.90
66184;DHT22;52989;48.796;9.806;2022-12-13T07:06:37;-5.90;99.90
66184;DHT22;52989;48.796;9.806;2022-12-13T07:09:02;-6.00;99.90
66184;DHT22;52989;48.796;9.806;2022-12-13T07:11:30;-6.00;99.90
66184;DHT22;52989;48.796;9.806;2022-12-13T07:13:56;-6.10;99.90
66184;DHT22;52989;48.796;9.806;2022-12-13T07:16:22;-6.10;99.90
66184;DHT22;52989;48.796;9.806;2022-12-13T07:19:02;-6.20;99.90
66184;DHT22;52989;48.796;9.806;2022-12-13T07:21:29;-6.10;99.90
66184;DHT22;52989;48.796;9.806;2022-12-13T07:23:55;-6.10;99.90
66184;DHT22;52989;48.796;9.806;2022-12-13T07:26:20;-6.00;99.90
66184;DHT22;52989;48.796;9.806;2022-12-13T07:28:46;-6.00;99.90
66184;DHT22;52989;48.796;9.806;2022-12-13T07:31:12;-6.20;99.90
66184;DHT22;52989;48.796;9.806;2022-12-13T07:33:38;-6.00;99.90
66184;DHT22;52989;48.796;9.806;2022-12-13T07:38:37;-6.10;99.90
66184;DHT22;52989;48.796;9.806;2022-12-13T07:41:04;-6.10;99.90
66184;DHT22;52989;48.796;9.806;2022-12-13T07:43:30;-6.10;99.90
66184;DHT22;52989;48.796;9.806;2022-12-13T07:46:00;-6.00;99.90
66184;DHT22;52989;48.796;9.806;2022-12-13T07:48:26;-5.90;99.90
66184;DHT22;52989;48.796;9.806;2022-12-13T07:50:53;-6.00;99.90
66184;DHT22;52989;48.796;9.806;2022-12-13T07:53:19;-6.00;99.90
66184;DHT22;52989;48.796;9.806;2022-12-13T07:55:45;-5.90;99.90
66184;DHT22;52989;48.796;9.806;2022-12-13T07:58:13;-5.80;99.90
66184;DHT22;52989;48.796;9.806;2022-12-13T08:00:41;-5.70;99.90
66184;DHT22;52989;48.796;9.806;2022-12-13T08:03:07;-5.50;99.90
66184;DHT22;52989;48.796;9.806;2022-12-13T08:05:34;-5.70;99.70
66184;DHT22;52989;48.796;9.806;2022-12-13T08:08:00;-5.70;99.80
66184;DHT22;52989;48.796;9.806;2022-12-13T08:10:26;-5.40;99.80
66184;DHT22;52989;48.796;9.806;2022-12-13T08:12:52;-5.50;99.20
66184;DHT22;52989;48.796;9.806;2022-12-13T08:15:18;-5.60;99.50
66184;DHT22;52989;48.796;9.806;2022-12-13T08:17:44;-5.60;99.70
66184;DHT22;52989;48.796;9.806;2022-12-13T08:20:10;-5.20;99.90
66184;DHT22;52989;48.796;9.806;2022-12-13T08:22:36;-5.40;99.40
66184;DHT22;52989;48.796;9.806;2022-12-13T08:25:01;-5.20;99.70
66184;DHT22;52989;48.796;9.806;2022-12-13T08:27:27;-5.40;99.60
66184;DHT22;52989;48.796;9.806;2022-12-13T08:29:53;-5.40;99.50
66184;DHT22;52989;48.796;9.806;2022-12-13T08:32:19;-5.30;99.90
66184;DHT22;52989;48.796;9.806;2022-12-13T08:34:44;-5.30;99.70
66184;DHT22;52989;48.796;9.806;2022-12-13T08:37:10;-5.10;99.70
66184;DHT22;52989;48.796;9.806;2022-12-13T08:39:37;-5.30;99.40
66184;DHT22;52989;48.796;9.806;2022-12-13T08:42:11;-5.40;99.90
66184;DHT22;52989;48.796;9.806;2022-12-13T08:44:38;-5.00;99.90
66184;DHT22;52989;48.796;9.806;2022-12-13T08:47:03;-5.00;99.50
66184;DHT22;52989;48.796;9.806;2022-12-13T08:49:29;-5.10;99.90
66184;DHT22;52989;48.796;9.806;2022-12-13T08:51:55;-5.10;99.50
66184;DHT22;52989;48.796;9.806;2022-12-13T08:54:21;-4.80;99.70
66184;DHT22;52989;48.796;9.806;2022-12-13T08:56:47;-4.60;99.90
66184;DHT22;52989;48.796;9.806;2022-12-13T08:59:12;-4.90;99.50
66184;DHT22;52989;48.796;9.806;2022-12-13T09:01:38;-4.90;99.40
66184;DHT22;52989;48.796;9.806;2022-12-13T09:04:04;-4.50;99.90
66184;DHT22;52989;48.796;9.806;2022-12-13T09:06:29;-4.40;99.80
66184;DHT22;52989;48.796;9.806;2022-12-13T09:08:55;-4.20;99.20
66184;DHT22;52989;48.796;9.806;2022-12-13T09:11:21;-3.80;99.50
66184;DHT22;52989;48.796;9.806;2022-12-13T09:13:47;-3.80;97.90
66184;DHT22;52989;48.796;9.806;2022-12-13T09:16:16;-3.80;98.40
66184;DHT22;52989;48.796;9.806;2022-12-13T09:18:44;-3.90;97.80
66184;DHT22;52989;48.796;9.806;2022-12-13T09:21:12;-3.80;98.50
66184;DHT22;52989;48.796;9.806;2022-12-13T09:23:39;-3.90;97.80
66184;DHT22;52989;48.796;9.806;2022-12-13T09:26:06;-3.80;98.10
66184;DHT22;52989;48.796;9.806;2022-12-13T09:28:33;-3.80;98.10
66184;DHT22;52989;48.796;9.806;2022-12-13T09:30:59;-3.30;97.60
66184;DHT22;52989;48.796;9.806;2022-12-13T09:33:25;-3.30;97.30
66184;DHT22;52989;48.796;9.806;2022-12-13T09:35:51;-3.30;96.90
66184;DHT22;52989;48.796;9.806;2022-12-13T09:38:17;-3.30;96.90
66184;DHT22;52989;48.796;9.806;2022-12-13T09:40:44;-3.10;97.10
66184;DHT22;52989;48.796;9.806;2022-12-13T09:43:18;-3.00;96.00
66184;DHT22;52989;48.796;9.806;2022-12-13T09:45:45;-2.80;96.30
66184;DHT22;52989;48.796;9.806;2022-12-13T09:48:16;-2.80;95.80
66184;DHT22;52989;48.796;9.806;2022-12-13T09:50:43;-2.80;95.80
66184;DHT22;52989;48.796;9.806;2022-12-13T09:53:10;-2.70;95.40
66184;DHT22;52989;48.796;9.806;2022-12-13T09:55:41;-2.60;95.30
66184;DHT22;52989;48.796;9.806;2022-12-13T09:58:14;-2.60;95.40
66184;DHT22;52989;48.796;9.806;2022-12-13T10:00:42;-2.50;95.70
66184;DHT22;52989;48.796;9.806;2022-12-13T10:03:12;-2.60;95.00
66184;DHT22;52989;48.796;9.806;2022-12-13T10:05:39;-2.20;94.80
66184;DHT22;52989;48.796;9.806;2022-12-13T10:08:13;-2.40;94.30
66184;DHT22;52989;48.796;9.806;2022-12-13T10:10:39;-2.40;94.90
66184;DHT22;52989;48.796;9.806;2022-12-13T10:15:58;-2.10;94.80
66184;DHT22;52989;48.796;9.806;2022-12-13T10:18:37;-2.10;94.00
66184;DHT22;52989;48.796;9.806;2022-12-13T10:21:09;-2.20;94.10
66184;DHT22;52989;48.796;9.806;2022-12-13T10:23:35;-2.00;93.60
66184;DHT22;52989;48.796;9.806;2022-12-13T10:26:08;-2.00;93.20
66184;DHT22;52989;48.796;9.806;2022-12-13T10:28:35;-2.10;93.80
66184;DHT22;52989;48.796;9.806;2022-12-13T10:31:01;-2.10;93.30
66184;DHT22;52989;48.796;9.806;2022-12-13T10:33:36;-2.10;93.20
66184;DHT22;52989;48.796;9.806;2022-12-13T10:38:38;-1.80;93.20
66184;DHT22;52989;48.796;9.806;2022-12-13T10:41:24;-1.90;92.40
66184;DHT22;52989;48.796;9.806;2022-12-13T10:44:25;-2.00;92.40
66184;DHT22;52989;48.796;9.806;2022-12-13T10:46:59;-2.00;92.30
66184;DHT22;52989;48.796;9.806;2022-12-13T10:52:03;-1.80;92.30
66184;DHT22;52989;48.796;9.806;2022-12-13T10:54:32;-1.70;92.10
66184;DHT22;52989;48.796;9.806;2022-12-13T10:57:01;-1.70;91.60
66184;DHT22;52989;48.796;9.806;2022-12-13T10:59:37;-1.70;91.70
66184;DHT22;52989;48.796;9.806;2022-12-13T11:02:35;-1.50;91.70
66184;DHT22;52989;48.796;9.806;2022-12-13T11:05:25;-1.50;91.70
66184;DHT22;52989;48.796;9.806;2022-12-13T11:07:51;-1.50;91.40
66184;DHT22;52989;48.796;9.806;2022-12-13T11:10:27;-1.40;90.80
66184;DHT22;52989;48.796;9.806;2022-12-13T11:12:59;-1.30;90.60
66184;DHT22;52989;48.796;9.806;2022-12-13T11:15:26;-1.30;89.30
66184;DHT22;52989;48.796;9.806;2022-12-13T11:17:57;-1.30;90.10
66184;DHT22;52989;48.796;9.806;2022-12-13T11:20:26;-1.30;90.60
66184;DHT22;52989;48.796;9.806;2022-12-13T11:23:25;-1.30;90.40
66184;DHT22;52989;48.796;9.806;2022-12-13T11:25:58;-1.40;90.20
66184;DHT22;52989;48.796;9.806;2022-12-13T11:31:45;-1.30;90.60
66184;DHT22;52989;48.796;9.806;2022-12-13T11:39:44;-1.20;88.90
66184;DHT22;52989;48.796;9.806;2022-12-13T11:44:57;-1.20;89.90
66184;DHT22;52989;48.796;9.806;2022-12-13T11:47:30;-1.20;88.80
66184;DHT22;52989;48.796;9.806;2022-12-13T11:49:58;-1.20;88.70
66184;DHT22;52989;48.796;9.806;2022-12-13T11:52:29;-1.20;89.60
66184;DHT22;52989;48.796;9.806;2022-12-13T11:55:11;-1.00;88.90
66184;DHT22;52989;48.796;9.806;2022-12-13T11:57:53;-0.90;87.40
66184;DHT22;52989;48.796;9.806;2022-12-13T12:00:39;-0.70;87.10
66184;DHT22;52989;48.796;9.806;2022-12-13T12:05:46;-0.70;86.10
66184;DHT22;52989;48.796;9.806;2022-12-13T12:08:44;-0.70;86.10
66184;DHT22;52989;48.796;9.806;2022-12-13T12:17:12;-0.70;84.50
66184;DHT22;52989;48.796;9.806;2022-12-13T12:19:40;-0.80;85.90
66184;DHT22;52989;48.796;9.806;2022-12-13T12:25:17;-0.80;83.60
66184;DHT22;52989;48.796;9.806;2022-12-13T12:30:56;-0.50;84.50
66184;DHT22;52989;48.796;9.806;2022-12-13T12:33:30;-0.60;82.80
66184;DHT22;52989;48.796;9.806;2022-12-13T12:35:59;-0.70;82.70
66184;DHT22;52989;48.796;9.806;2022-12-13T12:38:45;-0.80;84.00
66184;DHT22;52989;48.796;9.806;2022-12-13T12:49:21;-0.70;82.90
66184;DHT22;52989;48.796;9.806;2022-12-13T12:52:14;-0.40;84.50
66184;DHT22;52989;48.796;9.806;2022-12-13T13:00:11;-0.60;82.60
66184;DHT22;52989;48.796;9.806;2022-12-13T13:03:00;-0.40;84.20
66184;DHT22;52989;48.796;9.806;2022-12-13T13:05:37;-0.60;82.60
66184;DHT22;52989;48.796;9.806;2022-12-13T13:09:15;-0.60;83.20
66184;DHT22;52989;48.796;9.806;2022-12-13T13:11:08;-0.50;81.80
66184;DHT22;52989;48.796;9.806;2022-12-13T13:13:46;-0.50;81.90
66184;DHT22;52989;48.796;9.806;2022-12-13T13:18:57;-0.40;81.40
66184;DHT22;52989;48.796;9.806;2022-12-13T13:26:33;-0.20;80.30
66184;DHT22;52989;48.796;9.806;2022-12-13T13:34:30;0.10;81.60
66184;DHT22;52989;48.796;9.806;2022-12-13T13:36:57;0.00;79.90
66184;DHT22;52989;48.796;9.806;2022-12-13T13:47:12;0.00;80.10
66184;DHT22;52989;48.796;9.806;2022-12-13T13:50:04;0.00;79.70
66184;DHT22;52989;48.796;9.806;2022-12-13T13:52:56;-0.30;80.30
66184;DHT22;52989;48.796;9.806;2022-12-13T13:58:41;-0.50;80.60
66184;DHT22;52989;48.796;9.806;2022-12-13T14:23:34;-0.80;84.90
66184;DHT22;52989;48.796;9.806;2022-12-13T14:28:54;-1.00;86.10
66184;DHT22;52989;48.796;9.806;2022-12-13T14:31:35;-1.20;86.30
66184;DHT22;52989;48.796;9.806;2022-12-13T14:34:03;-1.20;85.70
66184;DHT22;52989;48.796;9.806;2022-12-13T14:36:31;-1.30;85.00
66184;DHT22;52989;48.796;9.806;2022-12-13T14:39:19;-1.30;85.40
66184;DHT22;52989;48.796;9.806;2022-12-13T14:41:47;-1.40;85.60
66184;DHT22;52989;48.796;9.806;2022-12-13T14:44:22;-1.40;85.70
66184;DHT22;52989;48.796;9.806;2022-12-13T14:46:53;-1.50;85.80
66184;DHT22;52989;48.796;9.806;2022-12-13T14:49:20;-1.60;86.20
66184;DHT22;52989;48.796;9.806;2022-12-13T14:51:47;-1.50;87.30
66184;DHT22;52989;48.796;9.806;2022-12-13T14:54:19;-1.50;85.90
66184;DHT22;52989;48.796;9.806;2022-12-13T14:57:02;-1.70;86.90
66184;DHT22;52989;48.796;9.806;2022-12-13T14:59:29;-1.70;87.10
66184;DHT22;52989;48.796;9.806;2022-12-13T15:02:01;-1.50;86.80
66184;DHT22;52989;48.796;9.806;2022-12-13T15:04:30;-1.50;87.20
66184;DHT22;52989;48.796;9.806;2022-12-13T15:07:05;-1.50;88.30
66184;DHT22;52989;48.796;9.806;2022-12-13T15:09:37;-1.60;86.50
66184;DHT22;52989;48.796;9.806;2022-12-13T15:12:08;-1.40;88.90
66184;DHT22;52989;48.796;9.806;2022-12-13T15:14:36;-1.60;87.60
66184;DHT22;52989;48.796;9.806;2022-12-13T15:17:02;-1.80;88.10
66184;DHT22;52989;48.796;9.806;2022-12-13T15:19:29;-1.90;88.70
66184;DHT22;52989;48.796;9.806;2022-12-13T15:22:05;-1.90;89.00
66184;DHT22;52989;48.796;9.806;2022-12-13T15:24:38;-2.10;89.20
66184;DHT22;52989;48.796;9.806;2022-12-13T15:27:12;-2.10;90.00
66184;DHT22;52989;48.796;9.806;2022-12-13T15:29:39;-2.10;90.30
66184;DHT22;52989;48.796;9.806;2022-12-13T15:32:10;-2.10;90.30
66184;DHT22;52989;48.796;9.806;2022-12-13T15:34:36;-2.20;90.40
66184;DHT22;52989;48.796;9.806;2022-12-13T15:39:44;-2.30;90.60
66184;DHT22;52989;48.796;9.806;2022-12-13T15:42:34;-2.30;90.70
66184;DHT22;52989;48.796;9.806;2022-12-13T15:45:05;-2.30;90.90
66184;DHT22;52989;48.796;9.806;2022-12-13T15:47:31;-2.40;91.00
66184;DHT22;52989;48.796;9.806;2022-12-13T15:50:00;-2.30;91.60
66184;DHT22;52989;48.796;9.806;2022-12-13T15:52:35;-2.20;90.70
66184;DHT22;52989;48.796;9.806;2022-12-13T15:57:53;-2.30;91.10
66184;DHT22;52989;48.796;9.806;2022-12-13T16:00:22;-2.30;90.80
66184;DHT22;52989;48.796;9.806;2022-12-13T16:05:31;-2.20;90.80
66184;DHT22;52989;48.796;9.806;2022-12-13T16:08:00;-2.20;90.40
66184;DHT22;52989;48.796;9.806;2022-12-13T16:10:26;-2.30;90.70
66184;DHT22;52989;48.796;9.806;2022-12-13T16:13:04;-2.20;90.50
66184;DHT22;52989;48.796;9.806;2022-12-13T16:15:53;-2.30;90.40
66184;DHT22;52989;48.796;9.806;2022-12-13T16:18:44;-2.20;90.50
66184;DHT22;52989;48.796;9.806;2022-12-13T16:21:10;-2.30;90.40
66184;DHT22;52989;48.796;9.806;2022-12-13T16:23:36;-2.20;90.60
66184;DHT22;52989;48.796;9.806;2022-12-13T16:26:01;-2.20;90.60
66184;DHT22;52989;48.796;9.806;2022-12-13T16:28:27;-2.20;90.60
66184;DHT22;52989;48.796;9.806;2022-12-13T16:33:19;-2.30;90.80
66184;DHT22;52989;48.796;9.806;2022-12-13T16:35:45;-2.30;90.90
66184;DHT22;52989;48.796;9.806;2022-12-13T16:38:11;-2.40;91.00
66184;DHT22;52989;48.796;9.806;2022-12-13T16:40:37;-2.20;91.50
66184;DHT22;52989;48.796;9.806;2022-12-13T16:43:05;-2.40;91.10
66184;DHT22;52989;48.796;9.806;2022-12-13T16:45:42;-2.40;91.20
66184;DHT22;52989;48.796;9.806;2022-12-13T16:48:12;-2.40;90.70
66184;DHT22;52989;48.796;9.806;2022-12-13T16:50:42;-2.40;91.00
66184;DHT22;52989;48.796;9.806;2022-12-13T16:53:08;-2.30;91.20
66184;DHT22;52989;48.796;9.806;2022-12-13T16:55:34;-2.30;91.10
66184;DHT22;52989;48.796;9.806;2022-12-13T16:58:02;-2.20;91.00
66184;DHT22;52989;48.796;9.806;2022-12-13T17:00:28;-2.40;91.10
66184;DHT22;52989;48.796;9.806;2022-12-13T17:02:55;-2.40;91.50
66184;DHT22;52989;48.796;9.806;2022-12-13T17:05:22;-2.40;90.90
66184;DHT22;52989;48.796;9.806;2022-12-13T17:07:48;-2.30;91.30
66184;DHT22;52989;48.796;9.806;2022-12-13T17:10:14;-2.30;90.80
66184;DHT22;52989;48.796;9.806;2022-12-13T17:12:40;-2.20;90.60
66184;DHT22;52989;48.796;9.806;2022-12-13T17:15:07;-2.30;90.60
66184;DHT22;52989;48.796;9.806;2022-12-13T17:17:36;-2.40;90.80
66184;DHT22;52989;48.796;9.806;2022-12-13T17:20:03;-2.50;90.80
66184;DHT22;52989;48.796;9.806;2022-12-13T17:22:29;-2.40;90.80
66184;DHT22;52989;48.796;9.806;2022-12-13T17:24:56;-2.40;90.80
66184;DHT22;52989;48.796;9.806;2022-12-13T17:27:21;-2.40;90.70
66184;DHT22;52989;48.796;9.806;2022-12-13T17:29:47;-2.40;90.20
66184;DHT22;52989;48.796;9.806;2022-12-13T17:32:13;-2.30;91.00
66184;DHT22;52989;48.796;9.806;2022-12-13T17:34:38;-2.20;90.20
66184;DHT22;52989;48.796;9.806;2022-12-13T17:37:04;-2.10;90.10
66184;DHT22;52989;48.796;9.806;2022-12-13T17:39:30;-2.40;90.20
66184;DHT22;52989;48.796;9.806;2022-12-13T17:41:55;-2.30;90.90
66184;DHT22;52989;48.796;9.806;2022-12-13T17:44:24;-2.20;90.70
66184;DHT22;52989;48.796;9.806;2022-12-13T17:46:51;-2.40;90.60
66184;DHT22;52989;48.796;9.806;2022-12-13T17:49:17;-2.50;90.60
66184;DHT22;52989;48.796;9.806;2022-12-13T17:51:43;-2.50;90.50
66184;DHT22;52989;48.796;9.806;2022-12-13T17:54:09;-2.40;90.40
66184;DHT22;52989;48.796;9.806;2022-12-13T17:56:35;-2.10;90.30
66184;DHT22;52989;48.796;9.806;2022-12-13T17:59:00;-2.00;90.00
66184;DHT22;52989;48.796;9.806;2022-12-13T18:01:26;-2.50;90.30